sensor_id;sensor_type;location;lat;lon;timestamp;P1;durP1;ratioP1;P2;durP2;ratioP2
61739;SDS011;47645;45.288;12.038;2023-03-04T00:00:10;19.6;;;9.3;;
61739;SDS011;47645;45.288;12.038;2023-03-04T00:10:11;18.8;;;9.7;;
61739;SDS011;47645;45.288;12.038;2023-03-04T00:20:11;16.5;;;9.2;;
61739;SDS011;47645;45.288;12.038;2023-03-04T00:30:11;17.5;;;10.5;;
61739;SDS011;47645;45.288;12.038;2023-03-04T00:40:11;17.2;;;9.3;;
61739;SDS011;47645;45.288;12.038;2023-03-04T00:50:12;18.9;;;11.0;;
61739;SDS011;47645;45.288;12.038;2023-03-04T01:00:13;18.5;;;10.5;;
61739;SDS011;47645;45.288;12.038;2023-03-04T01:10:13;18.4;;;10.4;;
61739;SDS011;47645;45.288;12.038;2023-03-04T01:20:13;19.8;;;10.8;;
61739;SDS011;47645;45.288;12.038;2023-03-04T01:30:13;17.7;;;10.8;;
61739;SDS011;47645;45.288;12.038;2023-03-04T01:40:14;19.6;;;11.2;;
61739;SDS011;47645;45.288;12.038;2023-03-04T01:50:16;20.7;;;11.2;;
61739;SDS011;47645;45.288;12.038;2023-03-04T02:00:17;14.7;;;8.9;;
61739;SDS011;47645;45.288;12.038;2023-03-04T02:10:15;12.9;;;8.1;;
61739;SDS011;47645;45.288;12.038;2023-03-04T02:20:22;16.3;;;8.9;;
61739;SDS011;47645;45.288;12.038;2023-03-04T02:30:19;19.3;;;10.7;;
61739;SDS011;47645;45.288;12.038;2023-03-04T02:40:19;17.9;;;11.4;;
61739;SDS011;47645;45.288;12.038;2023-03-04T02:50:16;21.5;;;12.7;;
61739;SDS011;47645;45.288;12.038;2023-03-04T03:00:17;19.9;;;11.3;;
61739;SDS011;47645;45.288;12.038;2023-03-04T03:10:17;16.3;;;10.0;;
61739;SDS011;47645;45.288;12.038;2023-03-04T03:20:18;18.8;;;11.1;;
61739;SDS011;47645;45.288;12.038;2023-03-04T03:30:18;24.7;;;12.6;;
61739;SDS011;47645;45.288;12.038;2023-03-04T03:40:18;21.7;;;12.6;;
61739;SDS011;47645;45.288;12.038;2023-03-04T03:50:19;20.0;;;12.6;;
61739;SDS011;47645;45.288;12.038;2023-03-04T04:00:19;19.1;;;12.2;;
61739;SDS011;47645;45.288;12.038;2023-03-04T04:10:20;19.0;;;11.1;;
61739;SDS011;47645;45.288;12.038;2023-03-04T04:20:20;13.4;;;8.5;;
61739;SDS011;47645;45.288;12.038;2023-03-04T04:30:20;16.1;;;9.7;;
61739;SDS011;47645;45.288;12.038;2023-03-04T04:40:21;20.5;;;12.6;;
61739;SDS011;47645;45.288;12.038;2023-03-04T04:50:21;19.1;;;11.9;;
61739;SDS011;47645;45.288;12.038;2023-03-04T05:00:21;30.3;;;16.8;;
61739;SDS011;47645;45.288;12.038;2023-03-04T05:10:22;28.3;;;14.5;;
61739;SDS011;47645;45.288;12.038;2023-03-04T05:20:23;51.3;;;24.6;;
61739;SDS011;47645;45.288;12.038;2023-03-04T05:30:23;26.6;;;14.4;;
61739;SDS011;47645;45.288;12.038;2023-03-04T05:40:24;24.5;;;13.0;;
61739;SDS011;47645;45.288;12.038;2023-03-04T05:50:23;20.7;;;11.9;;
61739;SDS011;47645;45.288;12.038;2023-03-04T06:00:24;23.5;;;13.6;;
61739;SDS011;47645;45.288;12.038;2023-03-04T06:10:24;28.3;;;15.4;;
61739;SDS011;47645;45.288;12.038;2023-03-04T06:20:24;48.5;;;25.2;;
61739;SDS011;47645;45.288;12.038;2023-03-04T06:30:25;23.7;;;13.2;;
61739;SDS011;47645;45.288;12.038;2023-03-04T06:40:25;25.6;;;13.0;;
61739;SDS011;47645;45.288;12.038;2023-03-04T06:50:25;20.4;;;12.2;;
61739;SDS011;47645;45.288;12.038;2023-03-04T07:00:26;24.7;;;13.1;;
61739;SDS011;47645;45.288;12.038;2023-03-04T07:10:26;21.8;;;13.2;;
61739;SDS011;47645;45.288;12.038;2023-03-04T07:20:26;33.8;;;18.4;;
61739;SDS011;47645;45.288;12.038;2023-03-04T07:30:27;22.2;;;14.0;;
61739;SDS011;47645;45.288;12.038;2023-03-04T07:40:27;28.0;;;16.1;;
61739;SDS011;47645;45.288;12.038;2023-03-04T07:50:27;21.5;;;13.4;;
61739;SDS011;47645;45.288;12.038;2023-03-04T08:00:28;20.3;;;12.9;;
61739;SDS011;47645;45.288;12.038;2023-03-04T08:10:28;27.4;;;12.6;;
61739;SDS011;47645;45.288;12.038;2023-03-04T08:20:29;18.7;;;11.2;;
61739;SDS011;47645;45.288;12.038;2023-03-04T08:30:29;21.4;;;11.9;;
61739;SDS011;47645;45.288;12.038;2023-03-04T08:40:30;20.5;;;11.7;;
61739;SDS011;47645;45.288;12.038;2023-03-04T08:50:31;15.8;;;9.3;;
61739;SDS011;47645;45.288;12.038;2023-03-04T09:00:31;16.9;;;10.4;;
61739;SDS011;47645;45.288;12.038;2023-03-04T09:10:31;17.5;;;9.6;;
61739;SDS011;47645;45.288;12.038;2023-03-04T09:20:32;20.1;;;11.0;;
61739;SDS011;47645;45.288;12.038;2023-03-04T09:30:32;22.6;;;11.5;;
61739;SDS011;47645;45.288;12.038;2023-03-04T09:40:36;20.7;;;10.7;;
61739;SDS011;47645;45.288;12.038;2023-03-04T09:50:33;18.7;;;11.5;;
61739;SDS011;47645;45.288;12.038;2023-03-04T10:00:35;17.2;;;11.0;;
61739;SDS011;47645;45.288;12.038;2023-03-04T10:10:35;16.8;;;10.9;;
61739;SDS011;47645;45.288;12.038;2023-03-04T10:20:42;15.6;;;10.1;;
61739;SDS011;47645;45.288;12.038;2023-03-04T10:30:39;16.4;;;10.2;;
61739;SDS011;47645;45.288;12.038;2023-03-04T10:40:38;17.7;;;10.3;;
61739;SDS011;47645;45.288;12.038;2023-03-04T10:50:37;16.5;;;9.8;;
61739;SDS011;47645;45.288;12.038;2023-03-04T11:00:38;18.9;;;10.0;;
61739;SDS011;47645;45.288;12.038;2023-03-04T11:10:39;15.4;;;9.6;;
61739;SDS011;47645;45.288;12.038;2023-03-04T11:20:41;19.0;;;9.4;;
61739;SDS011;47645;45.288;12.038;2023-03-04T11:30:43;14.9;;;8.1;;
61739;SDS011;47645;45.288;12.038;2023-03-04T11:40:42;13.8;;;7.5;;
61739;SDS011;47645;45.288;12.038;2023-03-04T11:50:46;18.4;;;10.9;;
61739;SDS011;47645;45.288;12.038;2023-03-04T12:00:44;15.5;;;9.8;;
61739;SDS011;47645;45.288;12.038;2023-03-04T12:10:46;17.7;;;10.1;;
61739;SDS011;47645;45.288;12.038;2023-03-04T12:20:49;17.5;;;9.7;;
61739;SDS011;47645;45.288;12.038;2023-03-04T12:30:51;16.2;;;8.6;;
61739;SDS011;47645;45.288;12.038;2023-03-04T12:40:48;13.8;;;9.0;;
61739;SDS011;47645;45.288;12.038;2023-03-04T12:50:51;16.6;;;9.5;;
61739;SDS011;47645;45.288;12.038;2023-03-04T13:00:51;14.4;;;9.8;;
61739;SDS011;47645;45.288;12.038;2023-03-04T13:10:50;15.3;;;10.5;;
61739;SDS011;47645;45.288;12.038;2023-03-04T13:21:04;17.8;;;10.4;;
61739;SDS011;47645;45.288;12.038;2023-03-04T13:31:11;18.3;;;12.1;;
61739;SDS011;47645;45.288;12.038;2023-03-04T13:41:06;22.0;;;13.7;;
61739;SDS011;47645;45.288;12.038;2023-03-04T13:50:54;16.1;;;10.8;;
61739;SDS011;47645;45.288;12.038;2023-03-04T14:00:55;17.0;;;11.0;;
61739;SDS011;47645;45.288;12.038;2023-03-04T14:10:56;22.4;;;12.6;;
61739;SDS011;47645;45.288;12.038;2023-03-04T14:20:58;17.9;;;13.4;;
61739;SDS011;47645;45.288;12.038;2023-03-04T14:30:58;20.6;;;12.2;;
61739;SDS011;47645;45.288;12.038;2023-03-04T14:40:59;17.6;;;12.9;;
61739;SDS011;47645;45.288;12.038;2023-03-04T14:51:00;20.4;;;13.5;;
61739;SDS011;47645;45.288;12.038;2023-03-04T15:01:04;23.4;;;13.2;;
61739;SDS011;47645;45.288;12.038;2023-03-04T15:11:01;21.7;;;13.2;;
61739;SDS011;47645;45.288;12.038;2023-03-04T15:21:02;21.6;;;13.2;;
61739;SDS011;47645;45.288;12.038;2023-03-04T15:31:03;23.2;;;13.8;;
61739;SDS011;47645;45.288;12.038;2023-03-04T15:41:03;22.0;;;14.2;;
61739;SDS011;47645;45.288;12.038;2023-03-04T15:51:06;24.0;;;14.5;;
61739;SDS011;47645;45.288;12.038;2023-03-04T16:01:05;22.8;;;14.1;;
61739;SDS011;47645;45.288;12.038;2023-03-04T16:11:05;21.3;;;13.8;;
61739;SDS011;47645;45.288;12.038;2023-03-04T16:21:06;21.9;;;13.6;;
61739;SDS011;47645;45.288;12.038;2023-03-04T16:31:08;24.7;;;14.7;;
61739;SDS011;47645;45.288;12.038;2023-03-04T16:41:09;26.5;;;15.6;;
61739;SDS011;47645;45.288;12.038;2023-03-04T16:51:11;26.4;;;15.1;;
61739;SDS011;47645;45.288;12.038;2023-03-04T17:01:11;32.8;;;20.8;;
61739;SDS011;47645;45.288;12.038;2023-03-04T17:11:10;32.4;;;19.8;;
61739;SDS011;47645;45.288;12.038;2023-03-04T17:21:11;27.7;;;16.9;;
61739;SDS011;47645;45.288;12.038;2023-03-04T17:31:12;28.9;;;17.3;;
61739;SDS011;47645;45.288;12.038;2023-03-04T17:41:15;28.1;;;17.1;;
61739;SDS011;47645;45.288;12.038;2023-03-04T17:51:12;39.0;;;21.4;;
61739;SDS011;47645;45.288;12.038;2023-03-04T18:01:14;41.0;;;25.6;;
61739;SDS011;47645;45.288;12.038;2023-03-04T18:11:13;44.5;;;26.2;;
61739;SDS011;47645;45.288;12.038;2023-03-04T18:21:14;49.6;;;26.2;;
61739;SDS011;47645;45.288;12.038;2023-03-04T18:31:16;43.4;;;24.6;;
61739;SDS011;47645;45.288;12.038;2023-03-04T18:41:15;44.7;;;25.5;;
61739;SDS011;47645;45.288;12.038;2023-03-04T18:51:15;39.2;;;24.1;;
61739;SDS011;47645;45.288;12.038;2023-03-04T19:01:16;41.2;;;25.5;;
61739;SDS011;47645;45.288;12.038;2023-03-04T19:11:17;46.2;;;26.3;;
61739;SDS011;47645;45.288;12.038;2023-03-04T19:21:18;46.5;;;28.6;;
61739;SDS011;47645;45.288;12.038;2023-03-04T19:31:18;48.1;;;29.3;;
61739;SDS011;47645;45.288;12.038;2023-03-04T19:41:18;45.7;;;28.1;;
61739;SDS011;47645;45.288;12.038;2023-03-04T19:51:19;50.3;;;28.1;;
61739;SDS011;47645;45.288;12.038;2023-03-04T20:01:20;47.6;;;28.2;;
61739;SDS011;47645;45.288;12.038;2023-03-04T20:11:21;45.1;;;27.5;;
61739;SDS011;47645;45.288;12.038;2023-03-04T20:21:20;46.8;;;27.0;;
61739;SDS011;47645;45.288;12.038;2023-03-04T20:31:23;43.1;;;26.0;;
61739;SDS011;47645;45.288;12.038;2023-03-04T20:41:22;42.3;;;25.6;;
61739;SDS011;47645;45.288;12.038;2023-03-04T20:51:22;35.7;;;22.0;;
61739;SDS011;47645;45.288;12.038;2023-03-04T21:01:23;34.9;;;22.9;;
61739;SDS011;47645;45.288;12.038;2023-03-04T21:11:25;39.9;;;23.8;;
61739;SDS011;47645;45.288;12.038;2023-03-04T21:21:26;40.6;;;24.4;;
61739;SDS011;47645;45.288;12.038;2023-03-04T21:31:24;40.8;;;23.1;;
61739;SDS011;47645;45.288;12.038;2023-03-04T21:41:24;33.2;;;20.1;;
61739;SDS011;47645;45.288;12.038;2023-03-04T21:51:25;41.3;;;24.5;;
61739;SDS011;47645;45.288;12.038;2023-03-04T22:01:25;48.4;;;27.3;;
61739;SDS011;47645;45.288;12.038;2023-03-04T22:11:25;37.3;;;21.9;;
61739;SDS011;47645;45.288;12.038;2023-03-04T22:21:25;41.0;;;24.2;;
61739;SDS011;47645;45.288;12.038;2023-03-04T22:31:32;38.9;;;21.7;;
61739;SDS011;47645;45.288;12.038;2023-03-04T22:41:25;44.5;;;26.6;;
61739;SDS011;47645;45.288;12.038;2023-03-04T22:51:26;38.4;;;21.9;;
61739;SDS011;47645;45.288;12.038;2023-03-04T23:01:26;39.6;;;24.2;;
61739;SDS011;47645;45.288;12.038;2023-03-04T23:11:28;36.1;;;21.3;;
61739;SDS011;47645;45.288;12.038;2023-03-04T23:21:27;48.2;;;25.6;;
61739;SDS011;47645;45.288;12.038;2023-03-04T23:31:28;44.3;;;24.8;;
61739;SDS011;47645;45.288;12.038;2023-03-04T23:41:28;30.0;;;18.4;;
61739;SDS011;47645;45.288;12.038;2023-03-04T23:51:29;42.0;;;23.0;;
